Time;durP1;ratioP1;P1;durP2;ratioP2;P2;SDS_P1;SDS_P2;PMS_P1;PMS_P2;Temp;Humidity;BMP_temperature;BMP_pressure;BME280_temperature;BME280_humidity;BME280_pressure;Samples;Min_cycle;Max_cycle;Signal;HPM_P1;HPM_P2
2021/12/02 00:02:13;;;;;;;0.75;0.75;;;23.10;34.40;;;;;;5060213;28;20545;-62
2021/12/02 00:04:40;;;;;;;0.70;0.70;;;23.10;34.40;;;;;;5066206;28;20052;-62
2021/12/02 00:07:08;;;;;;;0.75;0.75;;;23.10;34.30;;;;;;5066767;28;21000;-62
2021/12/02 00:09:36;;;;;;;0.52;0.52;;;23.10;34.40;;;;;;5064072;28;20055;-62
2021/12/02 00:12:05;;;;;;;1.05;0.77;;;23.10;34.40;;;;;;5060610;28;20127;-61
2021/12/02 00:14:45;;;;;;;0.50;0.47;;;23.10;34.40;;;;;;5067741;28;20055;-62
2021/12/02 00:17:21;;;;;;;0.85;0.60;;;23.10;34.30;;;;;;5066710;28;20105;-62
2021/12/02 00:23:08;;;;;;;0.85;0.85;;;23.10;34.40;;;;;;5058145;28;20075;-63
2021/12/02 00:25:35;;;;;;;0.80;0.80;;;23.10;34.40;;;;;;5043756;28;20131;-62
2021/12/02 00:28:04;;;;;;;1.25;0.85;;;23.10;34.40;;;;;;5045980;28;20106;-62
2021/12/02 00:30:32;;;;;;;0.77;0.77;;;23.10;34.40;;;;;;5045238;28;20132;-62
2021/12/02 00:33:01;;;;;;;0.50;0.50;;;23.10;34.40;;;;;;5051131;28;20126;-62
2021/12/02 00:35:28;;;;;;;0.77;0.60;;;23.10;34.40;;;;;;5065717;28;20059;-62
2021/12/02 00:37:58;;;;;;;0.65;0.60;;;23.10;34.40;;;;;;5067556;28;20048;-62
2021/12/02 00:40:25;;;;;;;0.90;0.80;;;23.10;34.40;;;;;;5067246;28;20105;-62
2021/12/02 00:42:53;;;;;;;1.13;0.80;;;23.00;34.30;;;;;;5057902;28;20044;-62
2021/12/02 00:45:20;;;;;;;0.82;0.80;;;23.10;34.40;;;;;;5066235;28;20103;-62
2021/12/02 00:47:48;;;;;;;1.02;0.63;;;23.10;34.40;;;;;;5066839;28;20685;-62
2021/12/02 00:50:15;;;;;;;0.60;0.60;;;23.00;34.30;;;;;;5065056;28;20657;-62
2021/12/02 00:52:43;;;;;;;0.90;0.70;;;23.00;34.30;;;;;;5056947;28;20048;-62
2021/12/02 00:55:10;;;;;;;0.68;0.68;;;23.00;34.30;;;;;;5066588;28;21276;-62
2021/12/02 00:57:41;;;;;;;1.08;0.55;;;23.00;34.30;;;;;;5067807;28;20138;-62
2021/12/02 01:00:09;;;;;;;0.60;0.60;;;23.00;34.30;;;;;;5066890;28;20062;-62
2021/12/02 01:02:38;;;;;;;0.65;0.57;;;23.00;34.40;;;;;;5057860;28;20052;-62
2021/12/02 01:05:06;;;;;;;0.60;0.47;;;23.00;34.30;;;;;;5065179;28;20135;-62
2021/12/02 01:07:33;;;;;;;0.73;0.60;;;23.00;34.30;;;;;;5065214;28;20546;-62
2021/12/02 01:10:00;;;;;;;0.68;0.65;;;23.00;34.40;;;;;;5064738;28;20097;-62
2021/12/02 01:12:27;;;;;;;1.05;0.60;;;23.00;34.40;;;;;;5046617;28;20574;-62
2021/12/02 01:14:54;;;;;;;0.50;0.50;;;23.00;34.40;;;;;;5065484;28;20068;-62
2021/12/02 01:17:22;;;;;;;0.95;0.90;;;23.00;34.40;;;;;;5064547;28;20048;-62
2021/12/02 01:19:49;;;;;;;0.90;0.60;;;23.00;34.40;;;;;;5065382;28;20116;-62
2021/12/02 01:22:17;;;;;;;0.65;0.65;;;23.00;34.40;;;;;;5056898;28;20105;-62
2021/12/02 01:24:49;;;;;;;0.63;0.47;;;23.00;34.40;;;;;;5064104;28;20131;-62
2021/12/02 01:27:19;;;;;;;0.85;0.70;;;23.00;34.40;;;;;;5065033;28;20052;-62
2021/12/02 01:29:47;;;;;;;1.05;0.82;;;23.00;34.90;;;;;;5068248;28;20051;-62
2021/12/02 01:32:17;;;;;;;0.60;0.60;;;23.00;34.40;;;;;;5052863;28;20055;-62
2021/12/02 01:34:47;;;;;;;0.55;0.55;;;23.00;34.40;;;;;;5067364;28;20553;-62
2021/12/02 01:37:15;;;;;;;0.40;0.40;;;23.00;34.40;;;;;;5065731;28;20052;-62
2021/12/02 01:39:42;;;;;;;0.63;0.60;;;23.00;34.40;;;;;;5064997;28;21058;-62
2021/12/02 01:42:15;;;;;;;0.63;0.43;;;23.00;34.30;;;;;;5046432;28;20114;-62
2021/12/02 01:44:42;;;;;;;0.73;0.57;;;23.00;34.40;;;;;;5023322;28;20461;-62
2021/12/02 01:47:13;;;;;;;0.68;0.50;;;23.00;34.30;;;;;;5024607;28;20111;-62
2021/12/02 01:49:42;;;;;;;0.60;0.57;;;23.00;34.30;;;;;;5023244;28;20561;-62
2021/12/02 01:52:11;;;;;;;1.10;0.73;;;23.00;34.30;;;;;;5039241;28;20109;-62
2021/12/02 01:54:44;;;;;;;0.57;0.57;;;23.00;34.30;;;;;;5063792;28;20051;-62
2021/12/02 01:57:30;;;;;;;0.80;0.55;;;23.00;34.30;;;;;;5064035;28;20098;-62
2021/12/02 02:00:10;;;;;;;0.55;0.50;;;23.00;34.30;;;;;;5064846;28;20141;-62
2021/12/02 02:02:39;;;;;;;0.40;0.40;;;23.00;34.30;;;;;;5056308;28;20092;-63
2021/12/02 02:05:13;;;;;;;0.40;0.40;;;23.00;34.30;;;;;;5065677;28;20048;-62
2021/12/02 02:07:59;;;;;;;0.40;0.40;;;23.00;34.30;;;;;;5065289;28;20058;-62
2021/12/02 02:10:29;;;;;;;0.40;0.40;;;23.00;34.30;;;;;;5064086;28;20056;-62
2021/12/02 02:12:59;;;;;;;0.63;0.50;;;23.00;34.40;;;;;;5052229;28;20533;-62
2021/12/02 02:15:27;;;;;;;0.47;0.47;;;23.00;34.40;;;;;;5044359;28;20103;-63
2021/12/02 02:17:58;;;;;;;0.30;0.30;;;23.00;34.30;;;;;;5042931;28;20600;-64
2021/12/02 02:20:44;;;;;;;1.73;0.70;;;23.00;34.30;;;;;;5044656;28;20139;-63
2021/12/02 02:23:12;;;;;;;0.52;0.45;;;23.00;34.30;;;;;;5055447;28;20503;-61
2021/12/02 02:25:45;;;;;;;0.52;0.52;;;23.00;34.30;;;;;;5044654;28;20062;-62
2021/12/02 02:28:14;;;;;;;0.50;0.50;;;22.90;34.30;;;;;;5044272;28;20048;-62
2021/12/02 02:30:42;;;;;;;0.65;0.43;;;22.90;34.30;;;;;;5044762;28;20045;-62
2021/12/02 02:33:14;;;;;;;0.65;0.40;;;22.90;34.30;;;;;;5048524;28;20143;-62
2021/12/02 02:35:43;;;;;;;0.43;0.43;;;22.90;34.30;;;;;;5048429;28;20045;-62
2021/12/02 02:38:10;;;;;;;1.65;0.80;;;22.90;34.30;;;;;;5049143;28;20421;-62
2021/12/02 02:40:41;;;;;;;0.50;0.50;;;22.90;34.30;;;;;;5048307;28;20129;-62
2021/12/02 02:43:11;;;;;;;0.47;0.47;;;22.90;34.30;;;;;;5060064;28;20055;-62
2021/12/02 02:45:38;;;;;;;0.20;0.20;;;22.90;34.30;;;;;;5065846;28;20052;-62
2021/12/02 02:48:06;;;;;;;0.60;0.60;;;22.90;34.40;;;;;;5074396;28;20059;-62
2021/12/02 02:50:34;;;;;;;0.40;0.40;;;22.90;34.30;;;;;;5068580;28;20066;-62
2021/12/02 02:53:09;;;;;;;0.50;0.50;;;22.90;34.40;;;;;;5060221;28;20656;-62
2021/12/02 02:55:37;;;;;;;0.40;0.40;;;22.90;34.90;;;;;;5069089;28;20059;-62
2021/12/02 02:58:15;;;;;;;0.50;0.50;;;22.90;34.40;;;;;;5066832;28;20522;-62
2021/12/02 03:00:55;;;;;;;0.38;0.38;;;22.90;34.40;;;;;;5067553;28;20055;-62
2021/12/02 03:03:35;;;;;;;0.40;0.40;;;22.90;34.40;;;;;;5055971;28;20489;-62
2021/12/02 03:09:00;;;;;;;0.70;0.50;;;22.90;34.40;;;;;;5067883;28;19966;-62
2021/12/02 03:11:36;;;;;;;0.47;0.40;;;22.80;34.30;;;;;;5064862;28;20109;-62
2021/12/02 03:14:11;;;;;;;0.30;0.30;;;22.90;34.40;;;;;;5069444;28;20051;-62
2021/12/02 03:16:45;;;;;;;0.98;0.63;;;22.90;34.40;;;;;;5067267;28;20112;-62
2021/12/02 03:19:15;;;;;;;1.05;0.40;;;22.90;34.40;;;;;;5066494;28;20496;-62
2021/12/02 03:21:43;;;;;;;1.13;0.43;;;22.90;34.40;;;;;;5060761;28;20197;-62
2021/12/02 03:24:10;;;;;;;0.45;0.45;;;22.90;34.50;;;;;;5064783;28;20106;-62
2021/12/02 03:26:37;;;;;;;0.50;0.40;;;22.90;34.40;;;;;;5067297;28;20101;-62
2021/12/02 03:29:05;;;;;;;0.30;0.30;;;22.80;34.30;;;;;;5066258;28;20132;-62
2021/12/02 03:31:34;;;;;;;0.30;0.30;;;22.90;34.40;;;;;;5063398;28;20091;-63
2021/12/02 03:34:01;;;;;;;0.52;0.50;;;22.90;34.40;;;;;;5059228;28;20280;-62
2021/12/02 03:36:29;;;;;;;0.45;0.43;;;22.90;34.40;;;;;;5067666;28;20048;-61
2021/12/02 03:38:56;;;;;;;1.00;0.63;;;22.90;34.30;;;;;;5067259;28;20044;-62
2021/12/02 03:41:24;;;;;;;0.57;0.35;;;22.90;34.30;;;;;;5063844;28;20087;-62
2021/12/02 03:43:52;;;;;;;0.30;0.30;;;22.90;34.30;;;;;;5062628;28;20052;-63
2021/12/02 03:46:23;;;;;;;0.35;0.35;;;22.90;34.30;;;;;;5066509;28;20237;-62
2021/12/02 03:48:52;;;;;;;0.40;0.30;;;22.90;34.30;;;;;;5067528;28;20101;-62
2021/12/02 03:51:22;;;;;;;0.38;0.38;;;22.90;34.40;;;;;;5064120;28;20755;-62
2021/12/02 03:53:49;;;;;;;0.32;0.28;;;22.90;34.30;;;;;;5062458;28;20840;-62
2021/12/02 03:56:17;;;;;;;0.80;0.40;;;22.90;34.30;;;;;;5066986;28;20449;-62
2021/12/02 03:58:46;;;;;;;0.22;0.22;;;22.90;34.30;;;;;;5066624;28;20052;-61
2021/12/02 04:01:14;;;;;;;0.57;0.40;;;22.90;34.30;;;;;;5061764;28;20911;-62
2021/12/02 04:03:42;;;;;;;0.30;0.30;;;22.90;34.30;;;;;;5062523;28;20087;-62
2021/12/02 04:06:11;;;;;;;0.43;0.40;;;22.90;34.30;;;;;;5066449;28;20143;-62
2021/12/02 04:08:43;;;;;;;0.22;0.22;;;22.90;34.30;;;;;;5066587;28;20091;-61
2021/12/02 04:11:35;;;;;;;0.20;0.20;;;22.90;34.30;;;;;;5062972;28;20476;-62
2021/12/02 04:16:52;;;;;;;0.28;0.28;;;22.90;34.30;;;;;;5066866;28;20140;-62
2021/12/02 04:19:21;;;;;;;0.30;0.30;;;22.90;34.30;;;;;;5048627;28;20152;-61
2021/12/02 04:21:51;;;;;;;0.47;0.40;;;22.90;34.30;;;;;;5030593;28;20079;-62
2021/12/02 04:24:19;;;;;;;0.37;0.30;;;22.90;34.30;;;;;;5063373;28;20052;-62
2021/12/02 04:26:46;;;;;;;0.40;0.40;;;22.90;34.30;;;;;;5067017;28;20292;-62
2021/12/02 04:29:14;;;;;;;0.30;0.30;;;22.90;34.30;;;;;;5066632;28;20500;-62
2021/12/02 04:31:47;;;;;;;0.40;0.40;;;22.80;34.30;;;;;;5059974;28;20504;-63
2021/12/02 04:34:15;;;;;;;0.47;0.40;;;22.90;34.30;;;;;;5063507;28;20140;-62
2021/12/02 04:36:43;;;;;;;0.30;0.30;;;22.90;34.30;;;;;;5066037;28;20091;-63
2021/12/02 04:39:10;;;;;;;0.47;0.47;;;22.90;34.30;;;;;;5065979;28;20559;-62
2021/12/02 04:41:38;;;;;;;0.50;0.50;;;22.90;34.40;;;;;;5050389;28;20056;-61
2021/12/02 04:44:05;;;;;;;0.40;0.40;;;22.80;34.30;;;;;;5038950;28;20044;-62
2021/12/02 04:46:33;;;;;;;0.20;0.20;;;22.80;34.30;;;;;;5026048;28;20425;-62
2021/12/02 04:49:01;;;;;;;0.40;0.40;;;22.80;34.30;;;;;;5025353;28;20103;-65
2021/12/02 04:51:29;;;;;;;0.40;0.40;;;22.80;34.30;;;;;;5032023;28;20048;-62
2021/12/02 04:53:56;;;;;;;0.75;0.50;;;22.80;34.40;;;;;;5038083;28;20049;-62
2021/12/02 04:56:23;;;;;;;0.30;0.25;;;22.80;34.30;;;;;;5037764;28;20132;-62
2021/12/02 04:58:50;;;;;;;0.20;0.20;;;22.80;34.30;;;;;;5031451;28;20084;-62
2021/12/02 05:01:18;;;;;;;0.30;0.30;;;22.80;34.40;;;;;;5029681;28;20052;-62
2021/12/02 05:03:46;;;;;;;0.73;0.43;;;22.80;34.40;;;;;;5034537;28;20422;-62
2021/12/02 05:06:14;;;;;;;0.20;0.20;;;22.80;34.30;;;;;;5025840;28;20045;-62
2021/12/02 05:08:42;;;;;;;0.10;0.10;;;22.80;34.40;;;;;;5026912;28;20049;-62
2021/12/02 05:11:09;;;;;;;0.25;0.25;;;22.80;34.40;;;;;;5031469;28;20055;-62
2021/12/02 05:13:36;;;;;;;0.50;0.50;;;22.80;34.40;;;;;;5061333;28;20094;-62
2021/12/02 05:16:04;;;;;;;0.65;0.40;;;22.80;34.40;;;;;;5060790;28;20048;-62
2021/12/02 05:18:31;;;;;;;0.30;0.30;;;22.80;34.40;;;;;;5043254;28;20053;-62
2021/12/02 05:21:00;;;;;;;0.40;0.25;;;22.80;34.40;;;;;;5025090;28;20052;-62
2021/12/02 05:23:27;;;;;;;0.93;0.22;;;22.80;34.40;;;;;;5041195;28;20098;-62
2021/12/02 05:25:54;;;;;;;0.45;0.40;;;22.80;34.30;;;;;;5025000;28;20486;-61
2021/12/02 05:28:22;;;;;;;0.32;0.30;;;22.80;34.40;;;;;;5040295;28;20453;-62
2021/12/02 05:30:49;;;;;;;0.40;0.30;;;22.90;34.40;;;;;;5026289;28;20052;-62
2021/12/02 05:33:16;;;;;;;0.25;0.25;;;22.90;34.40;;;;;;5060629;28;20079;-62
2021/12/02 05:35:45;;;;;;;0.35;0.35;;;22.80;34.30;;;;;;5040511;28;20111;-62
2021/12/02 05:38:13;;;;;;;0.38;0.32;;;22.80;34.30;;;;;;5028753;28;20067;-63
2021/12/02 05:40:40;;;;;;;0.38;0.35;;;22.90;34.30;;;;;;5030773;28;20470;-62
2021/12/02 05:43:08;;;;;;;0.10;0.10;;;22.90;34.30;;;;;;5030642;28;20344;-62
2021/12/02 05:45:35;;;;;;;0.20;0.20;;;22.90;34.30;;;;;;5036286;28;20084;-62
2021/12/02 05:48:03;;;;;;;0.15;0.15;;;22.90;34.30;;;;;;5034389;28;20048;-62
2021/12/02 05:50:30;;;;;;;0.30;0.30;;;22.90;34.30;;;;;;5032444;28;20449;-62
2021/12/02 05:52:57;;;;;;;0.20;0.20;;;22.90;34.30;;;;;;5025299;28;20134;-62
2021/12/02 05:55:24;;;;;;;0.30;0.20;;;22.90;34.30;;;;;;5035783;28;20083;-62
2021/12/02 05:57:51;;;;;;;0.65;0.17;;;22.90;34.30;;;;;;5027551;28;20132;-62
2021/12/02 06:00:19;;;;;;;0.40;0.40;;;22.90;34.90;;;;;;5026880;28;20135;-62
2021/12/02 06:02:46;;;;;;;0.65;0.40;;;22.90;34.30;;;;;;5043735;28;20079;-62
2021/12/02 06:05:19;;;;;;;0.30;0.30;;;22.80;34.20;;;;;;5034184;28;20940;-62
2021/12/02 06:07:52;;;;;;;0.30;0.28;;;22.90;34.30;;;;;;5035936;28;20854;-62
2021/12/02 06:10:20;;;;;;;0.40;0.40;;;22.90;34.30;;;;;;5030928;28;20048;-62
2021/12/02 06:12:49;;;;;;;0.70;0.40;;;22.80;34.30;;;;;;5032923;28;20048;-62
2021/12/02 06:15:17;;;;;;;0.68;0.57;;;22.90;34.40;;;;;;5028792;28;20077;-63
2021/12/02 06:17:44;;;;;;;0.52;0.50;;;22.90;34.40;;;;;;5028081;28;20106;-62
2021/12/02 06:20:14;;;;;;;0.50;0.40;;;22.90;34.40;;;;;;5029449;28;20136;-63
2021/12/02 06:22:42;;;;;;;0.65;0.65;;;22.90;34.30;;;;;;5035112;28;20084;-63
2021/12/02 06:25:44;;;;;;;0.63;0.63;;;22.90;34.30;;;;;;5049075;28;20453;-63
2021/12/02 06:27:56;;;;;;;0.93;0.90;;;22.90;34.30;;;;;;5024588;28;20053;-62
2021/12/02 06:30:25;;;;;;;0.90;0.70;;;23.00;34.60;;;;;;5028367;28;20949;-63
2021/12/02 06:32:53;;;;;;;0.93;0.93;;;23.10;34.60;;;;;;5016652;28;20445;-64
2021/12/02 06:35:21;;;;;;;1.75;1.30;;;23.10;34.50;;;;;;5025735;28;20506;-61
2021/12/02 06:37:49;;;;;;;1.20;1.10;;;23.20;34.60;;;;;;5021946;28;20064;-61
2021/12/02 06:40:16;;;;;;;1.35;0.85;;;23.20;34.60;;;;;;5024150;28;20045;-61
2021/12/02 06:42:44;;;;;;;1.02;1.00;;;23.30;35.10;;;;;;5017300;28;20658;-62
2021/12/02 06:45:12;;;;;;;3.38;2.05;;;23.40;35.70;;;;;;5020590;28;20047;-62
2021/12/02 06:47:44;;;;;;;1.60;1.50;;;23.50;36.40;;;;;;5024638;28;20056;-62
2021/12/02 06:50:17;;;;;;;1.92;1.83;;;23.50;35.60;;;;;;5024942;28;20112;-62
2021/12/02 06:52:46;;;;;;;5.78;1.85;;;23.60;35.70;;;;;;5018328;28;20139;-63
2021/12/02 06:55:15;;;;;;;2.65;1.80;;;23.70;35.70;;;;;;5018056;28;20071;-62
2021/12/02 06:57:43;;;;;;;5.38;2.13;;;23.80;35.70;;;;;;5024486;28;20095;-62
2021/12/02 07:00:14;;;;;;;3.58;2.63;;;23.80;35.30;;;;;;5024835;28;20052;-63
2021/12/02 07:02:43;;;;;;;3.35;2.67;;;23.90;35.30;;;;;;5008465;28;20109;-62
2021/12/02 07:05:13;;;;;;;5.35;2.95;;;24.00;35.30;;;;;;5023785;28;20109;-62
2021/12/02 07:07:40;;;;;;;3.85;2.90;;;24.10;35.60;;;;;;5024080;28;20048;-66
2021/12/02 07:10:17;;;;;;;6.10;3.00;;;24.10;35.60;;;;;;5022749;28;20088;-62
2021/12/02 07:12:47;;;;;;;3.90;3.15;;;24.20;35.60;;;;;;5011532;28;20052;-59
2021/12/02 07:15:26;;;;;;;4.78;3.58;;;24.30;35.40;;;;;;5025616;28;20057;-59
2021/12/02 07:17:57;;;;;;;5.30;3.30;;;24.40;35.60;;;;;;5027172;28;20096;-60
2021/12/02 07:20:27;;;;;;;6.15;3.45;;;24.50;35.30;;;;;;5031155;28;20110;-61
2021/12/02 07:22:54;;;;;;;9.00;3.92;;;24.50;35.20;;;;;;5017412;28;20044;-60
2021/12/02 07:25:21;;;;;;;7.30;3.97;;;24.60;35.60;;;;;;5025918;28;20508;-60
2021/12/02 07:27:48;;;;;;;4.75;3.65;;;24.70;35.00;;;;;;5025105;28;20083;-60
2021/12/02 07:30:16;;;;;;;4.93;3.90;;;24.80;34.60;;;;;;5024311;28;20063;-59
2021/12/02 07:32:50;;;;;;;3.72;3.35;;;24.80;34.60;;;;;;5016878;28;20602;-62
2021/12/02 07:35:18;;;;;;;4.95;3.70;;;24.90;34.60;;;;;;5027453;28;22798;-60
2021/12/02 07:37:48;;;;;;;3.83;3.42;;;24.90;34.40;;;;;;5028146;28;20059;-61
2021/12/02 07:40:17;;;;;;;4.88;3.67;;;25.00;34.40;;;;;;5028537;28;20049;-60
2021/12/02 07:42:47;;;;;;;5.53;3.40;;;25.10;34.30;;;;;;5024515;28;20074;-62
2021/12/02 07:45:15;;;;;;;4.15;3.47;;;25.10;34.30;;;;;;5032471;28;20456;-59
2021/12/02 07:47:42;;;;;;;4.97;3.60;;;25.20;34.30;;;;;;5027403;28;20856;-60
2021/12/02 07:50:13;;;;;;;4.03;2.85;;;25.20;34.40;;;;;;5028892;28;20045;-59
2021/12/02 07:52:45;;;;;;;;;;;25.30;35.00;;;;;;5018583;28;20147;-60
2021/12/02 07:55:15;;;;;;;4.20;3.45;;;25.30;34.30;;;;;;5029194;28;19929;-60
2021/12/02 07:57:44;;;;;;;4.28;3.15;;;25.30;34.30;;;;;;5030281;28;20052;-60
2021/12/02 08:00:14;;;;;;;5.63;3.42;;;25.40;34.40;;;;;;5027007;28;20045;-59
2021/12/02 08:02:48;;;;;;;4.80;3.47;;;25.40;34.50;;;;;;5019688;28;20067;-60
2021/12/02 08:05:15;;;;;;;5.68;3.20;;;25.40;34.50;;;;;;5024188;28;20059;-63
2021/12/02 08:07:44;;;;;;;7.93;3.80;;;25.50;34.50;;;;;;5026105;28;20211;-59
2021/12/02 08:10:13;;;;;;;4.55;3.17;;;25.60;34.50;;;;;;5030553;28;20049;-59
2021/12/02 08:12:47;;;;;;;5.65;2.78;;;25.70;34.50;;;;;;5013767;28;20040;-61
2021/12/02 08:15:18;;;;;;;3.85;3.00;;;25.70;35.00;;;;;;5024698;28;20059;-60
2021/12/02 08:17:46;;;;;;;4.93;2.75;;;25.80;34.20;;;;;;5028774;28;20118;-60
2021/12/02 08:20:14;;;;;;;4.72;3.00;;;25.90;34.30;;;;;;5028775;28;20501;-60
2021/12/02 08:22:41;;;;;;;8.52;3.35;;;25.90;34.10;;;;;;5021921;28;20550;-60
2021/12/02 08:25:09;;;;;;;6.38;4.32;;;25.90;34.00;;;;;;5019739;28;20080;-62
2021/12/02 08:27:37;;;;;;;5.07;3.88;;;25.90;34.10;;;;;;5028547;28;20139;-61
2021/12/02 08:30:07;;;;;;;11.38;3.35;;;25.90;34.00;;;;;;5026459;28;20102;-61
2021/12/02 08:32:38;;;;;;;5.18;3.17;;;25.90;33.90;;;;;;5015811;28;20513;-62
2021/12/02 08:35:05;;;;;;;3.40;3.10;;;25.90;33.80;;;;;;5025461;28;20102;-61
2021/12/02 08:37:35;;;;;;;7.05;3.30;;;25.80;33.70;;;;;;5030198;28;20148;-61
2021/12/02 08:40:04;;;;;;;5.80;3.53;;;25.80;33.70;;;;;;5022254;28;20517;-60
2021/12/02 08:42:32;;;;;;;4.15;3.40;;;25.80;33.80;;;;;;5010523;28;20060;-61
2021/12/02 08:45:01;;;;;;;3.58;2.78;;;25.80;33.80;;;;;;5027854;28;20049;-61
2021/12/02 08:47:28;;;;;;;6.45;2.97;;;25.80;33.90;;;;;;5023993;28;20052;-62
2021/12/02 08:49:56;;;;;;;3.95;2.78;;;25.80;34.10;;;;;;5026139;28;20041;-61
2021/12/02 08:52:26;;;;;;;5.72;2.95;;;25.70;34.10;;;;;;5012846;28;20691;-61
2021/12/02 08:54:54;;;;;;;7.35;3.03;;;25.80;34.70;;;;;;5020673;28;20057;-61
2021/12/02 08:57:42;;;;;;;4.72;3.22;;;25.80;34.20;;;;;;5022543;28;20045;-61
2021/12/02 09:00:12;;;;;;;5.25;3.20;;;25.80;34.10;;;;;;5019460;28;20052;-61
2021/12/02 09:02:40;;;;;;;3.83;2.75;;;25.70;33.90;;;;;;5011276;28;20369;-64
2021/12/02 09:05:08;;;;;;;3.05;2.42;;;25.70;33.70;;;;;;5031515;28;20053;-63
2021/12/02 09:07:36;;;;;;;6.40;3.40;;;25.80;33.70;;;;;;5030229;28;20146;-62
2021/12/02 09:10:05;;;;;;;17.23;3.20;;;25.80;33.60;;;;;;5026393;28;20120;-63
2021/12/02 09:12:33;;;;;;;7.18;3.80;;;25.70;33.60;;;;;;5019095;28;20118;-63
2021/12/02 09:15:00;;;;;;;2.95;2.65;;;25.70;33.50;;;;;;5023460;28;20080;-64
2021/12/02 09:17:28;;;;;;;5.07;3.03;;;25.70;33.60;;;;;;5022366;28;20052;-64
2021/12/02 09:19:55;;;;;;;3.22;2.30;;;25.70;33.60;;;;;;5022986;28;20144;-65
2021/12/02 09:22:22;;;;;;;3.47;2.30;;;25.70;33.80;;;;;;5017686;28;20048;-62
2021/12/02 09:24:49;;;;;;;4.10;2.22;;;25.70;34.00;;;;;;5019876;28;20502;-60
2021/12/02 09:27:17;;;;;;;2.80;2.28;;;25.60;33.90;;;;;;5020579;28;20052;-63
2021/12/02 09:29:44;;;;;;;4.13;2.80;;;25.60;34.10;;;;;;5021967;28;20136;-62
2021/12/02 09:32:11;;;;;;;3.60;2.20;;;25.60;34.40;;;;;;5018407;28;20068;-63
2021/12/02 09:34:39;;;;;;;3.72;2.35;;;25.60;34.50;;;;;;5022029;28;20051;-62
2021/12/02 09:37:06;;;;;;;3.47;2.33;;;25.50;34.50;;;;;;5026764;28;20486;-64
2021/12/02 09:39:34;;;;;;;2.65;2.38;;;25.50;34.50;;;;;;5027845;28;20041;-62
2021/12/02 09:42:05;;;;;;;9.13;2.90;;;25.50;34.60;;;;;;5014526;28;20048;-61
2021/12/02 09:44:58;;;;;;;3.05;2.20;;;25.60;34.70;;;;;;5018596;28;20076;-60
2021/12/02 09:47:30;;;;;;;4.90;2.20;;;25.60;34.70;;;;;;5021329;28;20103;-62
2021/12/02 09:50:03;;;;;;;2.45;2.17;;;25.60;34.70;;;;;;5020574;28;20549;-62
2021/12/02 09:52:35;;;;;;;3.30;1.85;;;25.60;34.70;;;;;;5023303;28;20080;-63
2021/12/02 09:55:09;;;;;;;2.92;2.00;;;25.60;34.80;;;;;;5028623;28;20064;-62
2021/12/02 09:57:41;;;;;;;3.05;1.85;;;25.60;34.70;;;;;;5028219;28;20147;-64
2021/12/02 10:00:16;;;;;;;2.80;1.92;;;25.50;34.60;;;;;;5026724;28;20048;-63
2021/12/02 10:02:53;;;;;;;2.25;1.73;;;25.50;34.70;;;;;;5009097;28;20149;-62
2021/12/02 10:05:33;;;;;;;3.45;1.67;;;25.60;34.70;;;;;;5023375;28;20049;-64
2021/12/02 10:08:04;;;;;;;2.70;1.95;;;25.50;34.70;;;;;;5030907;28;20076;-64
2021/12/02 10:10:34;;;;;;;5.28;2.28;;;25.50;34.80;;;;;;5023862;28;20045;-64
2021/12/02 10:13:26;;;;;;;2.10;1.75;;;25.50;34.90;;;;;;5013364;28;20049;-64
2021/12/02 10:16:28;;;;;;;1.70;1.60;;;25.50;34.90;;;;;;5024990;28;20126;-64
2021/12/02 10:19:03;;;;;;;3.30;2.38;;;25.50;34.90;;;;;;5025863;28;20545;-62
2021/12/02 10:21:41;;;;;;;9.82;1.70;;;25.60;34.90;;;;;;5018321;28;20130;-62
2021/12/02 10:24:15;;;;;;;2.17;1.67;;;25.60;34.80;;;;;;5021101;28;20235;-60
2021/12/02 10:26:49;;;;;;;3.55;1.60;;;25.60;34.80;;;;;;5024648;28;20135;-64
2021/12/02 10:29:37;;;;;;;2.30;1.80;;;25.60;34.70;;;;;;5022381;28;20055;-63
2021/12/02 10:32:19;;;;;;;2.92;1.50;;;25.60;34.60;;;;;;5016428;28;20106;-62
2021/12/02 10:35:03;;;;;;;1.98;1.50;;;25.60;34.60;;;;;;5028007;28;20182;-63
2021/12/02 10:37:33;;;;;;;1.80;1.67;;;25.60;34.60;;;;;;5023697;28;20103;-63
2021/12/02 10:40:13;;;;;;;2.78;1.67;;;25.70;34.70;;;;;;5028471;28;20088;-61
2021/12/02 10:42:44;;;;;;;2.80;1.60;;;25.70;34.70;;;;;;5016482;28;20292;-61
2021/12/02 10:45:24;;;;;;;1.50;1.40;;;25.70;34.70;;;;;;5029508;28;20080;-61
2021/12/02 10:47:53;;;;;;;2.17;1.80;;;25.70;34.70;;;;;;5023239;28;20045;-61
2021/12/02 10:50:23;;;;;;;2.77;1.43;;;25.60;34.60;;;;;;5027596;28;20581;-61
2021/12/02 10:52:51;;;;;;;4.97;1.80;;;25.70;34.50;;;;;;5015378;28;20048;-61
2021/12/02 10:55:28;;;;;;;1.70;1.60;;;25.70;34.40;;;;;;5026846;28;20123;-60
2021/12/02 10:57:59;;;;;;;3.00;1.75;;;25.70;34.40;;;;;;5031978;28;20084;-60
2021/12/02 11:00:30;;;;;;;1.70;1.35;;;25.70;34.50;;;;;;5029401;28;20053;-60
2021/12/02 11:03:06;;;;;;;2.65;1.20;;;25.70;34.50;;;;;;5021880;28;20506;-62
2021/12/02 11:05:35;;;;;;;2.95;1.40;;;25.60;34.60;;;;;;5027588;28;20105;-62
2021/12/02 11:08:08;;;;;;;6.70;1.60;;;25.60;34.60;;;;;;5030014;28;20079;-64
2021/12/02 11:10:41;;;;;;;1.50;1.33;;;25.50;34.60;;;;;;5026819;28;20088;-62
2021/12/02 11:13:09;;;;;;;1.88;1.50;;;25.60;34.70;;;;;;5018074;28;20045;-65
2021/12/02 11:15:39;;;;;;;5.30;2.13;;;25.50;34.60;;;;;;5031012;28;20048;-62
2021/12/02 11:18:10;;;;;;;1.27;1.08;;;25.50;34.60;;;;;;5031171;28;20395;-61
2021/12/02 11:20:40;;;;;;;1.65;1.40;;;25.50;34.70;;;;;;5033884;28;20395;-62
2021/12/02 11:23:28;;;;;;;1.40;1.30;;;25.50;34.70;;;;;;5028195;28;20079;-62
2021/12/02 11:26:05;;;;;;;1.27;0.90;;;25.50;34.70;;;;;;5028181;28;20659;-62
2021/12/02 11:28:35;;;;;;;5.57;1.25;;;25.40;34.60;;;;;;5027269;28;20122;-62
2021/12/02 11:31:16;;;;;;;1.98;1.50;;;25.40;34.60;;;;;;5030358;28;20106;-62
2021/12/02 11:33:45;;;;;;;1.92;1.25;;;25.40;34.60;;;;;;5024595;28;20053;-62
2021/12/02 11:36:26;;;;;;;3.22;1.00;;;25.40;34.60;;;;;;5030139;28;20053;-61
2021/12/02 11:38:57;;;;;;;2.65;1.27;;;25.40;34.60;;;;;;5032839;28;20483;-61
2021/12/02 11:41:26;;;;;;;2.60;1.05;;;25.40;34.60;;;;;;5025104;28;20110;-63
2021/12/02 11:43:54;;;;;;;1.30;1.20;;;25.30;34.60;;;;;;5021675;28;20136;-61
2021/12/02 11:46:22;;;;;;;1.17;1.02;;;25.30;34.80;;;;;;5028881;28;20355;-63
2021/12/02 11:48:49;;;;;;;2.60;1.20;;;25.30;35.00;;;;;;5029348;28;20448;-65
2021/12/02 11:51:20;;;;;;;2.03;1.17;;;25.30;35.00;;;;;;5024307;28;20611;-62
2021/12/02 11:53:49;;;;;;;3.28;1.20;;;25.30;35.10;;;;;;5022525;28;20049;-62
2021/12/02 11:56:18;;;;;;;1.20;1.00;;;25.20;35.00;;;;;;5031090;28;20051;-61
2021/12/02 11:58:47;;;;;;;1.63;0.93;;;25.20;35.20;;;;;;5030395;28;20064;-62
2021/12/02 12:01:22;;;;;;;3.10;1.20;;;25.20;35.20;;;;;;5027916;28;20044;-60
2021/12/02 12:03:54;;;;;;;1.10;1.00;;;25.20;35.20;;;;;;5027872;28;20512;-61
2021/12/02 12:06:31;;;;;;;3.08;1.05;;;25.20;35.30;;;;;;5026373;28;20052;-63
2021/12/02 12:08:58;;;;;;;1.02;0.93;;;25.20;35.40;;;;;;5027042;28;20517;-62
2021/12/02 12:11:31;;;;;;;1.55;0.70;;;25.10;35.30;;;;;;5022995;28;20045;-62
2021/12/02 12:14:08;;;;;;;1.80;1.10;;;25.10;35.70;;;;;;5023214;28;20048;-62
2021/12/02 12:16:45;;;;;;;1.65;0.82;;;25.10;35.90;;;;;;5027591;28;20057;-62
2021/12/02 12:19:26;;;;;;;1.58;0.90;;;25.10;36.00;;;;;;5031278;28;20057;-61
2021/12/02 12:22:00;;;;;;;4.03;1.00;;;25.10;36.20;;;;;;5021697;28;21572;-62
2021/12/02 12:24:49;;;;;;;2.35;0.95;;;25.10;36.40;;;;;;5023595;28;20083;-63
2021/12/02 12:27:20;;;;;;;5.95;1.00;;;25.10;36.50;;;;;;5027296;28;20075;-65
2021/12/02 12:30:14;;;;;;;3.83;1.27;;;25.10;36.60;;;;;;5033785;28;20049;-63
2021/12/02 12:35:54;;;;;;;3.90;1.27;;;25.10;36.40;;;;;;5028548;28;20142;-62
2021/12/02 12:38:32;;;;;;;1.20;1.05;;;25.10;36.30;;;;;;5030804;28;20045;-63
2021/12/02 12:41:10;;;;;;;1.30;1.10;;;25.00;36.80;;;;;;5025620;28;20114;-65
2021/12/02 12:43:50;;;;;;;0.93;0.93;;;25.00;36.30;;;;;;5016936;28;20049;-63
2021/12/02 12:46:27;;;;;;;2.97;0.90;;;24.90;36.20;;;;;;5026693;28;20130;-63
2021/12/02 12:48:57;;;;;;;0.95;0.90;;;24.90;36.20;;;;;;5026012;28;20053;-63
2021/12/02 12:51:32;;;;;;;2.10;0.88;;;24.90;36.20;;;;;;5023320;28;20117;-63
2021/12/02 12:54:03;;;;;;;2.72;1.10;;;24.90;36.20;;;;;;5018227;28;20041;-63
2021/12/02 12:56:33;;;;;;;1.23;1.00;;;24.90;36.30;;;;;;5024853;28;20169;-64
2021/12/02 12:59:07;;;;;;;4.28;1.23;;;24.90;36.30;;;;;;5031892;28;20052;-63
2021/12/02 13:01:36;;;;;;;1.35;1.10;;;24.80;36.20;;;;;;5023389;28;20056;-63
2021/12/02 13:04:20;;;;;;;4.53;1.33;;;24.80;36.20;;;;;;5030501;28;20132;-62
2021/12/02 13:06:52;;;;;;;3.40;1.02;;;24.80;36.20;;;;;;5028352;28;20053;-63
2021/12/02 13:12:49;;;;;;;1.30;1.13;;;24.80;36.40;;;;;;5019586;28;20056;-62
2021/12/02 13:15:20;;;;;;;3.05;0.95;;;24.70;36.40;;;;;;5026066;28;20076;-64
2021/12/02 13:17:51;;;;;;;4.45;1.50;;;24.70;36.60;;;;;;5028275;28;20159;-64
2021/12/02 13:20:33;;;;;;;5.25;1.33;;;24.70;36.80;;;;;;5026327;28;20075;-64
2021/12/02 13:23:25;;;;;;;0.95;0.93;;;24.70;36.80;;;;;;5016283;28;20078;-65